ENAN/ANX METAR and TAF weather

Enter ICAO airport designator
Station Type Date Time Source
ENAN METAR 2018/01/21 12:20 UTC NOAA

ENAN 211220Z 19008KT CAVOK M08/M11 Q1011


Station Type Date Time Source
ENAN Decoded METAR 2018/01/21 12:20 UTC NOAA

Andoya, Norway (ENAN) 69-18N 016-09E 14M
Jan 21, 2018 - 07:20 AM EST / 2018.01.21 1220 UTC
Wind: from the S (190 degrees) at 9 MPH (8 KT):0
Visibility: greater than 7 mile(s):0
Temperature: 17 F (-8 C)
Windchill: 5 F (-15 C):1
Dew Point: 12 F (-11 C)
Relative Humidity: 78%
Pressure (altimeter): 29.85 in. Hg (1011 hPa)
ob: ENAN 211220Z 19008KT CAVOK M08/M11 Q1011
cycle: 12

Station Type Date Time Source
ENAN TAF 2018/01/21 12:57 UTC NOAA

TAF TAF ENAN 211100Z 2112/2212 17010KT 9999 FEW025


Example: see airport list